createdAt,value
2017-10-18T00:02:01.899Z,319.27
2017-10-18T00:04:28.568Z,305.87
2017-10-18T00:06:55.252Z,290.80
2017-10-18T00:09:21.937Z,311.33
2017-10-18T00:11:48.897Z,343.93
2017-10-18T00:14:15.584Z,297.77
2017-10-18T00:16:42.239Z,300.13
2017-10-18T00:19:08.906Z,332.43
2017-10-18T00:21:35.595Z,354.93
2017-10-18T00:24:02.285Z,324.40
2017-10-18T00:26:28.945Z,223.77
2017-10-18T00:28:55.658Z,209.03
2017-10-18T00:31:22.313Z,173.13
2017-10-18T00:33:48.974Z,143.80
2017-10-18T00:36:15.818Z,136.30
2017-10-18T00:38:42.472Z,144.93
2017-10-18T00:41:09.149Z,312.80
2017-10-18T00:43:35.842Z,376.80
2017-10-18T00:46:02.493Z,270.27
2017-10-18T00:48:29.177Z,349.00
2017-10-18T00:50:55.846Z,425.27
2017-10-18T00:53:22.508Z,447.30
2017-10-18T00:55:49.209Z,558.57
2017-10-18T00:58:15.884Z,459.40
2017-10-18T01:00:42.579Z,557.87
2017-10-18T01:03:09.240Z,641.43
2017-10-18T01:05:35.929Z,477.07
2017-10-18T01:08:02.605Z,451.07
2017-10-18T01:10:29.271Z,576.17
2017-10-18T01:12:55.936Z,373.00
2017-10-18T01:15:22.645Z,249.17
2017-10-18T01:17:49.317Z,370.87
2017-10-18T01:20:16.015Z,437.17
2017-10-18T01:22:42.684Z,339.60
2017-10-18T01:25:09.348Z,654.73
2017-10-18T01:27:36.052Z,598.73
2017-10-18T01:30:02.717Z,500.13
2017-10-18T01:32:29.372Z,595.80
2017-10-18T01:34:56.064Z,434.10
2017-10-18T01:37:22.716Z,563.47
2017-10-18T01:39:49.417Z,430.37
2017-10-18T01:42:16.095Z,495.60
2017-10-18T01:44:42.756Z,553.00
2017-10-18T01:47:09.445Z,521.53
2017-10-18T01:49:36.116Z,644.27
2017-10-18T01:52:02.794Z,378.23
2017-10-18T01:54:29.452Z,507.43
2017-10-18T01:56:56.138Z,445.83
2017-10-18T01:59:22.792Z,647.43
2017-10-18T02:01:49.456Z,417.70
2017-10-18T02:04:16.136Z,651.43
2017-10-18T02:06:42.796Z,565.80
2017-10-18T02:09:09.472Z,443.73
2017-10-18T02:11:36.133Z,566.30
2017-10-18T02:14:02.815Z,765.70
2017-10-18T02:16:29.485Z,648.03
2017-10-18T02:18:56.168Z,536.20
2017-10-18T02:21:22.848Z,597.33
2017-10-18T02:23:49.501Z,658.53
2017-10-18T02:26:16.159Z,732.17
2017-10-18T02:28:43.030Z,450.67
2017-10-18T02:31:09.721Z,608.53
2017-10-18T02:33:36.380Z,538.00
2017-10-18T02:36:03.057Z,629.13
2017-10-18T02:38:29.769Z,684.50
2017-10-18T02:40:56.433Z,797.63
2017-10-18T02:43:23.097Z,631.87
2017-10-18T02:45:49.796Z,639.47
2017-10-18T02:48:16.473Z,541.53
2017-10-18T02:50:43.153Z,735.03
2017-10-18T02:53:09.832Z,515.33
2017-10-18T02:55:36.511Z,568.00
2017-10-18T02:58:03.173Z,461.70
2017-10-18T03:00:29.875Z,667.00
2017-10-18T03:02:56.559Z,492.87
2017-10-18T03:05:23.235Z,465.07
2017-10-18T03:07:49.896Z,840.80
2017-10-18T03:10:16.579Z,470.67
2017-10-18T03:12:43.239Z,749.33
2017-10-18T03:15:09.948Z,831.37
2017-10-18T03:17:36.608Z,905.83
2017-10-18T03:20:03.293Z,741.93
2017-10-18T03:22:29.953Z,570.57
2017-10-18T03:24:56.612Z,872.90
2017-10-18T03:27:23.289Z,842.97
2017-10-18T03:29:49.964Z,752.53
2017-10-18T03:32:16.645Z,762.57
2017-10-18T03:34:43.309Z,591.80
2017-10-18T03:37:09.997Z,520.30
2017-10-18T03:39:36.659Z,303.33
2017-10-18T03:42:03.325Z,212.83
2017-10-18T03:44:29.999Z,341.60
2017-10-18T03:46:56.660Z,214.33
2017-10-18T03:49:23.339Z,300.37
2017-10-18T03:51:50.042Z,290.10
2017-10-18T03:54:16.703Z,468.20
2017-10-18T03:56:43.389Z,488.00
2017-10-18T03:59:10.042Z,254.87
2017-10-18T04:01:36.748Z,309.83
2017-10-18T04:04:03.408Z,280.27
2017-10-18T04:06:30.077Z,246.60
2017-10-18T04:08:56.764Z,323.60
2017-10-18T04:11:23.419Z,429.83
2017-10-18T04:13:50.100Z,529.73
2017-10-18T04:16:16.757Z,545.87
2017-10-18T04:18:43.452Z,414.83
2017-10-18T04:21:10.509Z,450.23
2017-10-18T04:23:37.178Z,276.87
2017-10-18T04:26:03.873Z,242.63
2017-10-18T04:28:30.532Z,281.63
2017-10-18T04:30:57.220Z,252.93
2017-10-18T04:33:23.872Z,236.73
2017-10-18T04:35:50.588Z,295.17
2017-10-18T04:38:17.249Z,189.93
2017-10-18T04:40:43.899Z,281.37
2017-10-18T04:43:10.580Z,361.87
2017-10-18T04:45:37.277Z,399.70
2017-10-18T04:48:03.982Z,267.53
2017-10-18T04:50:30.852Z,249.17
2017-10-18T04:52:57.539Z,237.53
2017-10-18T04:55:24.196Z,257.07
2017-10-18T04:57:50.875Z,412.43
2017-10-18T05:00:17.528Z,422.47
2017-10-18T05:02:44.180Z,391.90
2017-10-18T05:05:10.870Z,427.63
2017-10-18T05:07:37.529Z,247.43
2017-10-18T05:10:04.185Z,450.97
2017-10-18T05:12:30.885Z,237.33
2017-10-18T05:14:57.552Z,280.83
2017-10-18T05:17:24.234Z,255.47
2017-10-18T05:19:50.916Z,198.97
2017-10-18T05:22:17.572Z,339.90
2017-10-18T05:24:44.260Z,278.00
2017-10-18T05:27:10.944Z,453.47
2017-10-18T05:29:37.622Z,247.07
2017-10-18T05:32:05.096Z,557.17
2017-10-18T05:34:31.763Z,463.00
2017-10-18T05:36:58.461Z,274.27
2017-10-18T05:39:25.150Z,309.87
2017-10-18T05:41:51.812Z,353.73
2017-10-18T05:44:18.690Z,553.47
2017-10-18T05:46:45.357Z,248.87
2017-10-18T05:49:12.018Z,375.37
2017-10-18T05:51:38.696Z,278.67
2017-10-18T05:54:05.362Z,444.77
2017-10-18T05:56:32.044Z,273.40
2017-10-18T05:58:58.725Z,595.67
2017-10-18T06:01:25.389Z,233.93
2017-10-18T06:03:52.072Z,242.17
2017-10-18T06:06:18.740Z,279.43
2017-10-18T06:08:45.421Z,202.10
2017-10-18T06:11:12.096Z,241.47
2017-10-18T06:13:38.992Z,157.03
2017-10-18T06:16:05.653Z,187.97
2017-10-18T06:18:32.329Z,188.80
2017-10-18T06:20:59.006Z,170.17
2017-10-18T06:23:25.759Z,176.63
2017-10-18T06:25:52.433Z,165.33
2017-10-18T06:28:19.088Z,144.73
2017-10-18T06:30:45.784Z,169.40
2017-10-18T06:33:12.432Z,134.73
2017-10-18T06:35:39.087Z,142.33
2017-10-18T06:38:05.768Z,175.80
2017-10-18T06:40:32.474Z,151.70
2017-10-18T06:42:59.144Z,174.23
2017-10-18T06:45:25.792Z,155.90
2017-10-18T06:47:52.485Z,176.57
2017-10-18T06:50:19.138Z,144.47
2017-10-18T06:52:45.802Z,168.00
2017-10-18T06:55:12.504Z,149.87
2017-10-18T06:57:39.167Z,137.60
2017-10-18T07:00:05.825Z,145.07
2017-10-18T07:02:32.504Z,132.17
2017-10-18T07:04:59.202Z,133.00
2017-10-18T07:07:25.857Z,150.67
2017-10-18T07:09:52.515Z,169.57
2017-10-18T07:12:19.219Z,142.53
2017-10-18T07:14:45.873Z,133.13
2017-10-18T07:17:12.549Z,157.70
2017-10-18T07:19:39.487Z,122.63
2017-10-18T07:22:06.195Z,131.20
2017-10-18T07:24:32.868Z,142.50
2017-10-18T07:26:59.528Z,120.57
2017-10-18T07:29:26.200Z,151.30
2017-10-18T07:31:52.851Z,150.93
2017-10-18T07:34:19.504Z,145.50
2017-10-18T07:36:46.185Z,179.73
2017-10-18T07:39:12.833Z,180.97
2017-10-18T07:41:39.507Z,170.00
2017-10-18T07:44:06.156Z,164.60
2017-10-18T07:46:32.835Z,166.13
2017-10-18T07:48:59.514Z,140.83
2017-10-18T07:51:26.199Z,167.83
2017-10-18T07:53:52.848Z,170.03
2017-10-18T07:56:19.554Z,151.47
2017-10-18T07:58:46.195Z,159.40
2017-10-18T08:01:12.880Z,153.27
2017-10-18T08:03:39.536Z,165.93
2017-10-18T08:06:06.182Z,166.53
2017-10-18T08:08:32.854Z,140.67
2017-10-18T08:10:59.528Z,156.03
2017-10-18T08:13:26.172Z,150.87
2017-10-18T08:15:52.828Z,144.60
2017-10-18T08:18:19.717Z,130.33
2017-10-18T08:20:46.377Z,132.50
2017-10-18T08:23:13.044Z,129.13
2017-10-18T08:25:39.725Z,126.93
2017-10-18T08:28:06.407Z,137.73
2017-10-18T08:30:33.087Z,129.97
2017-10-18T08:32:59.744Z,162.87
2017-10-18T08:35:26.422Z,133.27
2017-10-18T08:37:53.092Z,133.20
2017-10-18T08:40:19.764Z,127.87
2017-10-18T08:42:46.437Z,127.87
2017-10-18T08:45:13.122Z,137.20
2017-10-18T08:47:39.798Z,123.33
2017-10-18T08:50:06.489Z,125.33
2017-10-18T08:52:33.140Z,123.17
2017-10-18T08:54:59.812Z,140.53
2017-10-18T08:57:26.518Z,146.90
2017-10-18T08:59:53.177Z,129.77
2017-10-18T09:02:19.844Z,151.00
2017-10-18T09:04:46.522Z,113.63
2017-10-18T09:07:13.175Z,109.60
2017-10-18T09:09:39.832Z,128.37
2017-10-18T09:12:06.500Z,122.40
2017-10-18T09:14:33.149Z,123.67
2017-10-18T09:16:59.806Z,114.60
2017-10-18T09:19:26.505Z,134.93
2017-10-18T09:21:53.177Z,140.93
2017-10-18T09:24:19.827Z,132.40
2017-10-18T09:26:46.512Z,153.60
2017-10-18T09:29:13.165Z,158.43
2017-10-18T09:31:39.842Z,156.37
2017-10-18T09:34:06.488Z,190.97
2017-10-18T09:36:33.179Z,131.00
2017-10-18T09:38:59.868Z,140.43
2017-10-18T09:41:26.522Z,116.83
2017-10-18T09:43:53.180Z,130.47
2017-10-18T09:46:19.868Z,135.87
2017-10-18T09:48:46.548Z,137.50
2017-10-18T09:51:13.211Z,112.60
2017-10-18T09:53:39.858Z,92.73
2017-10-18T09:56:06.530Z,95.83
2017-10-18T09:58:33.208Z,98.63
2017-10-18T10:00:59.856Z,83.00
2017-10-18T10:03:26.515Z,120.87
2017-10-18T10:05:53.193Z,104.60
2017-10-18T10:08:19.836Z,81.70
2017-10-18T10:10:46.720Z,101.33
2017-10-18T10:13:13.367Z,91.00
2017-10-18T10:15:40.046Z,96.33
2017-10-18T10:18:06.718Z,84.00
2017-10-18T10:20:33.369Z,82.77
2017-10-18T10:23:00.051Z,107.87
2017-10-18T10:25:26.700Z,86.30
2017-10-18T10:27:53.359Z,98.97
2017-10-18T10:30:20.033Z,88.00
2017-10-18T10:32:46.806Z,87.80
2017-10-18T10:35:13.476Z,77.93
2017-10-18T10:37:40.126Z,87.47
2017-10-18T10:40:06.809Z,73.63
2017-10-18T10:42:33.460Z,76.97
2017-10-18T10:45:00.140Z,82.80
2017-10-18T10:47:26.800Z,78.40
2017-10-18T10:49:53.446Z,75.93
2017-10-18T10:52:20.099Z,76.77
2017-10-18T10:54:46.774Z,75.77
2017-10-18T10:57:13.439Z,86.87
2017-10-18T10:59:40.113Z,88.93
2017-10-18T11:02:06.772Z,77.17
2017-10-18T11:04:33.460Z,83.93
2017-10-18T11:07:00.135Z,83.27
2017-10-18T11:09:26.817Z,76.93
2017-10-18T11:11:53.469Z,81.67
2017-10-18T11:14:20.138Z,81.57
2017-10-18T11:16:46.820Z,76.17
2017-10-18T11:19:13.478Z,79.50
2017-10-18T11:21:40.325Z,85.10
2017-10-18T11:24:07.000Z,76.63
2017-10-18T11:26:33.648Z,85.67
2017-10-18T11:29:00.324Z,78.17
2017-10-18T11:31:26.972Z,79.83
2017-10-18T11:33:53.685Z,77.97
2017-10-18T11:36:20.346Z,69.70
2017-10-18T11:38:46.988Z,81.63
2017-10-18T11:41:13.656Z,68.00
2017-10-18T11:43:40.307Z,91.00
2017-10-18T11:46:07.008Z,76.77
2017-10-18T11:48:33.703Z,60.40
2017-10-18T11:51:00.355Z,68.97
2017-10-18T11:53:27.008Z,68.83
2017-10-18T11:55:53.680Z,60.70
2017-10-18T11:58:20.325Z,73.00
2017-10-18T12:00:46.973Z,63.27
2017-10-18T12:03:13.636Z,59.40
2017-10-18T12:05:40.281Z,76.83
2017-10-18T12:08:07.001Z,75.90
2017-10-18T12:10:33.653Z,65.70
2017-10-18T12:13:00.314Z,71.13
2017-10-18T12:15:27.012Z,68.70
2017-10-18T12:17:53.661Z,73.40
2017-10-18T12:20:20.313Z,71.90
2017-10-18T12:22:47.000Z,70.70
2017-10-18T12:25:13.656Z,67.37
2017-10-18T12:27:40.323Z,61.03
2017-10-18T12:30:06.989Z,55.80
2017-10-18T12:32:33.636Z,70.20
2017-10-18T12:35:00.313Z,59.30
2017-10-18T12:37:26.984Z,64.67
2017-10-18T12:39:54.088Z,65.63
2017-10-18T12:42:20.770Z,56.27
2017-10-18T12:44:47.438Z,52.23
2017-10-18T12:47:14.089Z,62.07
2017-10-18T12:49:40.757Z,47.03
2017-10-18T12:52:07.417Z,60.40
2017-10-18T12:54:34.080Z,59.67
2017-10-18T12:57:00.756Z,58.23
2017-10-18T12:59:27.432Z,60.10
2017-10-18T13:01:54.081Z,53.07
2017-10-18T13:04:20.781Z,51.77
2017-10-18T13:06:47.428Z,53.40
2017-10-18T13:09:14.084Z,50.43
2017-10-18T13:11:40.751Z,53.30
2017-10-18T13:14:07.470Z,51.30
2017-10-18T13:16:34.127Z,67.80
2017-10-18T13:19:00.775Z,47.27
2017-10-18T13:21:27.440Z,52.90
2017-10-18T13:23:54.134Z,49.43
2017-10-18T13:26:20.783Z,46.13
2017-10-18T13:28:47.434Z,46.20
2017-10-18T13:31:14.121Z,53.60
2017-10-18T13:33:40.772Z,62.77
2017-10-18T13:36:07.446Z,52.30
2017-10-18T13:38:34.103Z,60.50
2017-10-18T13:41:00.761Z,51.20
2017-10-18T13:43:27.432Z,53.23
2017-10-18T13:45:54.080Z,53.10
2017-10-18T13:48:20.738Z,44.23
2017-10-18T13:50:47.405Z,44.93
2017-10-18T13:53:14.048Z,48.80
2017-10-18T13:55:40.697Z,46.67
2017-10-18T13:58:07.365Z,51.93
2017-10-18T14:00:34.021Z,48.23
2017-10-18T14:03:00.697Z,43.67
2017-10-18T14:05:27.347Z,46.17
2017-10-18T14:07:53.995Z,52.83
2017-10-18T14:10:20.669Z,54.20
2017-10-18T14:12:47.321Z,56.60
2017-10-18T14:15:14.000Z,52.87
2017-10-18T14:17:40.675Z,60.53
2017-10-18T14:20:07.353Z,56.40
2017-10-18T14:22:34.030Z,58.57
2017-10-18T14:25:00.677Z,61.67
2017-10-18T14:27:27.332Z,56.57
2017-10-18T14:29:54.012Z,64.47
2017-10-18T14:32:20.680Z,59.50
2017-10-18T14:34:47.332Z,56.47
2017-10-18T14:37:13.996Z,55.97
2017-10-18T14:39:40.668Z,75.53
2017-10-18T14:42:07.350Z,65.33
2017-10-18T14:44:34.030Z,62.93
2017-10-18T14:47:00.685Z,62.03
2017-10-18T14:49:27.363Z,64.20
2017-10-18T14:51:54.168Z,69.40
2017-10-18T14:54:20.865Z,75.83
2017-10-18T14:56:47.521Z,84.20
2017-10-18T14:59:14.172Z,77.63
2017-10-18T15:01:40.856Z,67.10
2017-10-18T15:04:07.513Z,79.10
2017-10-18T15:06:35.168Z,62.00
2017-10-18T15:09:01.849Z,68.67
2017-10-18T15:11:28.528Z,61.30
2017-10-18T15:13:55.281Z,71.07
2017-10-18T15:16:21.962Z,84.33
2017-10-18T15:18:48.632Z,75.37
2017-10-18T15:21:15.293Z,73.07
2017-10-18T15:23:41.959Z,72.80
2017-10-18T15:26:08.604Z,70.40
2017-10-18T15:28:35.283Z,84.33
2017-10-18T15:31:01.956Z,90.60
2017-10-18T15:33:28.640Z,75.03
2017-10-18T15:35:55.280Z,78.30
2017-10-18T15:38:21.961Z,74.13
2017-10-18T15:40:48.632Z,75.87
2017-10-18T15:43:15.383Z,74.03
2017-10-18T15:45:42.036Z,85.23
2017-10-18T15:48:08.680Z,86.63
2017-10-18T15:50:35.372Z,74.23
2017-10-18T15:53:02.054Z,81.43
2017-10-18T15:55:28.756Z,81.57
2017-10-18T15:57:55.410Z,74.43
2017-10-18T16:00:22.062Z,84.70
2017-10-18T16:02:48.734Z,83.03
2017-10-18T16:05:15.404Z,86.37
2017-10-18T16:07:42.207Z,70.67
2017-10-18T16:10:08.890Z,76.93
2017-10-18T16:12:35.536Z,87.50
2017-10-18T16:15:02.194Z,88.13
2017-10-18T16:17:28.875Z,85.17
2017-10-18T16:19:55.538Z,128.63
2017-10-18T16:22:22.254Z,126.00
2017-10-18T16:24:48.940Z,123.80
2017-10-18T16:27:15.597Z,150.13
2017-10-18T16:29:42.272Z,136.00
2017-10-18T16:32:08.948Z,156.93
2017-10-18T16:34:35.616Z,146.00
2017-10-18T16:37:02.265Z,171.67
2017-10-18T16:39:28.919Z,171.03
2017-10-18T16:41:55.645Z,178.93
2017-10-18T16:44:22.320Z,209.27
2017-10-18T16:46:48.976Z,199.47
2017-10-18T16:49:15.663Z,235.47
2017-10-18T16:51:42.317Z,233.67
2017-10-18T16:54:09.000Z,274.47
2017-10-18T16:56:35.674Z,328.87
2017-10-18T16:59:02.352Z,270.87
2017-10-18T17:01:29.015Z,296.33
2017-10-18T17:03:55.672Z,302.20
2017-10-18T17:06:22.361Z,289.17
2017-10-18T17:08:49.055Z,293.20
2017-10-18T17:11:15.733Z,303.83
2017-10-18T17:13:42.406Z,325.90
2017-10-18T17:16:09.390Z,323.10
2017-10-18T17:18:36.059Z,357.97
2017-10-18T17:21:02.714Z,330.20
2017-10-18T17:23:29.408Z,349.20
2017-10-18T17:25:56.073Z,367.50
2017-10-18T17:28:22.730Z,413.80
2017-10-18T17:30:49.418Z,395.33
2017-10-18T17:33:16.074Z,388.53
2017-10-18T17:35:42.765Z,326.57
2017-10-18T17:38:09.448Z,342.23
2017-10-18T17:40:36.102Z,363.90
2017-10-18T17:43:02.760Z,429.00
2017-10-18T17:45:29.447Z,461.03
2017-10-18T17:47:56.118Z,454.00
2017-10-18T17:50:22.809Z,395.10
2017-10-18T17:52:49.479Z,493.42
2017-10-18T17:55:16.137Z,482.50
2017-10-18T17:57:42.840Z,407.33
2017-10-18T18:00:09.509Z,417.80
2017-10-18T18:02:36.197Z,391.93
2017-10-18T18:05:02.875Z,382.47
2017-10-18T18:07:29.534Z,420.10
2017-10-18T18:09:56.217Z,413.37
2017-10-18T18:12:22.887Z,380.63
2017-10-18T18:14:49.577Z,407.23
2017-10-18T18:17:16.259Z,409.70
2017-10-18T18:19:42.924Z,421.67
2017-10-18T18:22:09.625Z,459.90
2017-10-18T18:24:36.294Z,425.93
2017-10-18T18:27:03.060Z,477.70
2017-10-18T18:29:29.724Z,430.70
2017-10-18T18:31:56.415Z,457.20
2017-10-18T18:34:23.367Z,440.43
2017-10-18T18:36:50.053Z,443.20
2017-10-18T18:39:16.736Z,484.03
2017-10-18T18:41:43.417Z,496.97
2017-10-18T18:44:10.121Z,485.00
2017-10-18T18:46:36.932Z,423.73
2017-10-18T18:49:03.618Z,437.80
2017-10-18T18:51:30.345Z,463.43
2017-10-18T18:53:57.028Z,439.33
2017-10-18T18:56:24.396Z,430.63
2017-10-18T18:58:51.076Z,393.33
2017-10-18T19:01:17.796Z,404.47
2017-10-18T19:03:44.505Z,407.40
2017-10-18T19:06:11.482Z,391.70
2017-10-18T19:08:38.152Z,389.60
2017-10-18T19:11:04.832Z,394.87
2017-10-18T19:13:31.648Z,397.03
2017-10-18T19:15:58.311Z,377.93
2017-10-18T19:18:25.005Z,343.17
2017-10-18T19:20:51.941Z,293.07
2017-10-18T19:23:18.629Z,304.37
2017-10-18T19:25:45.311Z,313.43
2017-10-18T19:28:12.009Z,343.03
2017-10-18T19:30:38.672Z,304.90
2017-10-18T19:33:05.380Z,385.57
2017-10-18T19:35:32.046Z,385.97
2017-10-18T19:37:58.731Z,402.87
2017-10-18T19:40:25.402Z,407.37
2017-10-18T19:42:52.105Z,411.63
2017-10-18T19:45:18.818Z,394.43
2017-10-18T19:47:45.500Z,374.50
2017-10-18T19:50:12.166Z,366.93
2017-10-18T19:52:38.888Z,361.53
2017-10-18T19:55:05.546Z,385.10
2017-10-18T19:57:32.209Z,294.50
2017-10-18T19:59:58.909Z,307.37
2017-10-18T20:02:25.625Z,367.43
2017-10-18T20:04:52.297Z,344.53
2017-10-18T20:07:18.986Z,340.13
2017-10-18T20:09:45.673Z,323.37
2017-10-18T20:12:12.367Z,307.93
2017-10-18T20:14:39.075Z,350.03
2017-10-18T20:17:05.873Z,323.60
2017-10-18T20:19:32.535Z,314.37
2017-10-18T20:21:59.252Z,316.13
2017-10-18T20:24:26.238Z,347.73
2017-10-18T20:26:52.893Z,316.43
2017-10-18T20:29:19.667Z,292.70
2017-10-18T20:31:46.471Z,372.17
2017-10-18T20:34:13.200Z,324.43
2017-10-18T20:36:40.056Z,331.10
2017-10-18T20:39:06.752Z,296.43
2017-10-18T20:41:33.440Z,339.40
2017-10-18T20:44:00.123Z,269.47
2017-10-18T20:46:26.811Z,301.73
2017-10-18T20:48:53.882Z,322.27
2017-10-18T20:51:20.542Z,328.33
2017-10-18T20:53:47.481Z,325.63
2017-10-18T20:56:14.164Z,296.63
2017-10-18T20:58:40.826Z,250.80
2017-10-18T21:01:07.695Z,259.20
2017-10-18T21:03:34.628Z,307.63
2017-10-18T21:06:01.285Z,354.67
2017-10-18T21:08:28.339Z,393.17
2017-10-18T21:10:55.404Z,392.70
2017-10-18T21:13:22.369Z,345.77
2017-10-18T21:15:49.070Z,359.43
2017-10-18T21:18:15.753Z,295.70
2017-10-18T21:20:42.449Z,323.90
2017-10-18T21:23:09.110Z,361.40
2017-10-18T21:25:35.946Z,427.73
2017-10-18T21:28:02.602Z,505.83
2017-10-18T21:30:29.672Z,583.87
2017-10-18T21:32:56.332Z,540.03
2017-10-18T21:35:23.019Z,663.40
2017-10-18T21:37:49.677Z,721.97
2017-10-18T21:40:16.357Z,736.17
2017-10-18T21:42:43.145Z,513.40
2017-10-18T21:45:09.808Z,713.33
2017-10-18T21:47:36.493Z,507.77
2017-10-18T21:50:03.153Z,814.57
2017-10-18T21:52:29.839Z,410.27
2017-10-18T21:54:56.529Z,492.90
2017-10-18T21:57:23.206Z,1179.83
2017-10-18T21:59:49.883Z,436.77
2017-10-18T22:02:16.547Z,464.10
2017-10-18T22:04:43.227Z,587.70
2017-10-18T22:07:09.908Z,540.77
2017-10-18T22:09:36.591Z,481.33
2017-10-18T22:12:03.267Z,439.03
2017-10-18T22:14:29.945Z,424.43
2017-10-18T22:16:56.637Z,849.50
2017-10-18T22:19:23.317Z,593.87
2017-10-18T22:21:49.975Z,801.17
2017-10-18T22:24:16.667Z,909.53
2017-10-18T22:26:43.348Z,820.33
2017-10-18T22:29:10.036Z,725.83
2017-10-18T22:31:36.738Z,773.03
2017-10-18T22:34:03.445Z,804.83
2017-10-18T22:36:30.133Z,801.90
2017-10-18T22:38:56.815Z,715.53
2017-10-18T22:41:23.474Z,682.43
2017-10-18T22:43:50.182Z,676.27
2017-10-18T22:46:16.840Z,684.97
2017-10-18T22:48:43.533Z,822.73
2017-10-18T22:51:10.215Z,684.53
2017-10-18T22:53:36.882Z,584.37
2017-10-18T22:56:03.568Z,627.03
2017-10-18T22:58:30.459Z,574.20
2017-10-18T23:00:57.157Z,717.67
2017-10-18T23:03:23.820Z,772.90
2017-10-18T23:05:50.509Z,659.50
2017-10-18T23:08:17.197Z,788.27
2017-10-18T23:10:43.933Z,691.43
2017-10-18T23:13:10.598Z,789.23
2017-10-18T23:15:37.313Z,611.17
2017-10-18T23:18:03.980Z,448.97
2017-10-18T23:20:30.671Z,409.10
2017-10-18T23:22:57.373Z,725.27
2017-10-18T23:25:24.076Z,653.73
2017-10-18T23:27:50.753Z,548.23
2017-10-18T23:30:17.434Z,524.40
2017-10-18T23:32:44.096Z,612.97
2017-10-18T23:35:10.777Z,705.90
2017-10-18T23:37:37.492Z,620.10
2017-10-18T23:40:04.189Z,668.30
2017-10-18T23:42:30.879Z,680.47
2017-10-18T23:44:57.581Z,509.97
2017-10-18T23:47:24.241Z,373.70
2017-10-18T23:49:50.969Z,622.30
2017-10-18T23:52:17.684Z,596.93
2017-10-18T23:54:44.343Z,438.27
2017-10-18T23:57:11.156Z,514.57
2017-10-18T23:59:37.840Z,583.17
